createdAt,value
2023-12-18T00:02:01.377Z,16.50
2023-12-18T00:04:29.172Z,16.30
2023-12-18T00:06:56.965Z,16.10
2023-12-18T00:09:24.899Z,16.10
2023-12-18T00:11:52.826Z,16.10
2023-12-18T00:14:20.652Z,16.00
2023-12-18T00:16:49.779Z,16.00
2023-12-18T00:19:17.704Z,16.20
2023-12-18T00:21:45.583Z,16.30
2023-12-18T00:24:13.542Z,16.00
2023-12-18T00:26:41.349Z,16.20
2023-12-18T00:29:09.307Z,16.00
2023-12-18T00:31:37.122Z,16.20
2023-12-18T00:34:06.410Z,16.70
2023-12-18T00:36:34.313Z,16.90
2023-12-18T00:39:02.213Z,16.70
2023-12-18T00:41:30.060Z,16.50
2023-12-18T00:43:57.845Z,16.50
2023-12-18T00:46:26.769Z,16.60
2023-12-18T00:48:54.747Z,16.80
2023-12-18T00:51:24.034Z,16.60
2023-12-18T00:53:51.892Z,17.00
2023-12-18T00:56:19.680Z,17.10
2023-12-18T00:58:47.490Z,16.80
2023-12-18T01:01:15.305Z,17.00
2023-12-18T01:03:43.269Z,16.50
2023-12-18T01:06:11.321Z,17.10
2023-12-18T01:08:40.484Z,16.90
2023-12-18T01:11:08.299Z,16.80
2023-12-18T01:13:36.137Z,16.80
2023-12-18T01:16:04.096Z,17.50
2023-12-18T01:18:32.036Z,17.00
2023-12-18T01:20:59.951Z,17.10
2023-12-18T01:23:27.773Z,17.00
2023-12-18T01:25:56.910Z,17.40
2023-12-18T01:28:24.727Z,17.30
2023-12-18T01:30:52.641Z,17.10
2023-12-18T01:33:20.642Z,17.10
2023-12-18T01:35:48.549Z,17.10
2023-12-18T01:38:16.377Z,17.00
2023-12-18T01:40:45.590Z,17.00
2023-12-18T01:43:29.946Z,17.30
2023-12-18T01:45:59.356Z,17.10
2023-12-18T01:48:28.359Z,16.80
2023-12-18T01:50:58.557Z,17.00
2023-12-18T01:53:29.103Z,17.20
2023-12-18T01:55:58.060Z,17.10
2023-12-18T01:58:26.866Z,16.70
2023-12-18T02:00:56.484Z,16.80
2023-12-18T02:03:25.409Z,16.70
2023-12-18T02:05:53.452Z,16.70
2023-12-18T02:08:21.487Z,16.70
2023-12-18T02:10:49.742Z,16.40
2023-12-18T02:13:17.565Z,16.20
2023-12-18T02:15:45.421Z,16.40
2023-12-18T02:18:14.833Z,16.20
2023-12-18T02:20:43.431Z,16.30
2023-12-18T02:23:12.956Z,16.20
2023-12-18T02:25:40.784Z,16.40
2023-12-18T02:28:12.372Z,16.60
2023-12-18T02:30:40.309Z,16.40
2023-12-18T02:33:08.282Z,16.20
2023-12-18T02:35:36.295Z,16.60
2023-12-18T02:38:04.279Z,16.60
2023-12-18T02:40:33.410Z,16.50
2023-12-18T02:43:01.292Z,16.50
2023-12-18T02:45:29.264Z,16.40
2023-12-18T02:47:57.206Z,16.40
2023-12-18T02:50:25.141Z,16.50
2023-12-18T02:52:52.953Z,16.50
2023-12-18T02:55:20.758Z,16.60
2023-12-18T02:57:50.080Z,16.30
2023-12-18T03:00:18.263Z,16.30
2023-12-18T03:02:46.431Z,16.40
2023-12-18T03:05:15.126Z,16.10
2023-12-18T03:07:43.514Z,16.00
2023-12-18T03:10:11.707Z,16.10
2023-12-18T03:12:39.534Z,16.10
2023-12-18T03:15:10.727Z,16.00
2023-12-18T03:17:38.571Z,16.00
2023-12-18T03:20:07.842Z,16.10
2023-12-18T03:22:35.669Z,16.00
2023-12-18T03:25:04.654Z,16.00
2023-12-18T03:27:32.530Z,15.90
2023-12-18T03:30:00.378Z,15.90
2023-12-18T03:32:29.582Z,16.00
2023-12-18T03:34:57.509Z,15.90
2023-12-18T03:37:25.298Z,16.00
2023-12-18T03:39:53.104Z,16.00
2023-12-18T03:42:20.968Z,16.20
2023-12-18T03:44:48.822Z,16.10
2023-12-18T03:47:16.629Z,16.20
2023-12-18T03:49:45.931Z,16.20
2023-12-18T03:52:13.790Z,16.10
2023-12-18T03:54:41.656Z,15.90
2023-12-18T03:57:09.525Z,16.00
2023-12-18T03:59:37.355Z,16.20
2023-12-18T04:02:05.422Z,16.10
2023-12-18T04:04:33.543Z,16.20
2023-12-18T04:07:02.723Z,16.20
2023-12-18T04:09:30.560Z,16.30
2023-12-18T04:11:58.397Z,17.00
2023-12-18T04:14:26.223Z,16.60
2023-12-18T04:16:54.013Z,16.40
2023-12-18T04:19:21.995Z,16.30
2023-12-18T04:21:49.966Z,16.30
2023-12-18T04:24:20.650Z,16.40
2023-12-18T04:26:48.790Z,16.60
2023-12-18T04:29:18.027Z,16.40
2023-12-18T04:31:45.908Z,16.20
2023-12-18T04:34:13.910Z,16.40
2023-12-18T04:36:42.064Z,16.30
2023-12-18T04:39:11.627Z,16.10
2023-12-18T04:41:46.192Z,16.30
2023-12-18T04:44:29.693Z,16.20
2023-12-18T04:47:00.337Z,16.30
2023-12-18T04:49:32.730Z,16.20
2023-12-18T04:52:03.853Z,16.20
2023-12-18T04:54:33.157Z,16.20
2023-12-18T04:57:02.897Z,16.40
2023-12-18T04:59:31.074Z,16.20
2023-12-18T05:01:59.294Z,16.20
2023-12-18T05:04:27.348Z,16.30
2023-12-18T05:06:55.290Z,16.30
2023-12-18T05:09:23.163Z,16.10
2023-12-18T05:11:50.987Z,16.20
2023-12-18T05:14:20.118Z,16.10
2023-12-18T05:16:48.317Z,16.00
2023-12-18T05:19:16.260Z,16.00
2023-12-18T05:21:44.223Z,16.00
2023-12-18T05:24:12.139Z,16.10
2023-12-18T05:26:39.926Z,16.20
2023-12-18T05:29:07.739Z,16.10
2023-12-18T05:31:36.972Z,16.10
2023-12-18T05:34:05.113Z,16.20
2023-12-18T05:36:33.049Z,16.00
2023-12-18T05:39:00.885Z,15.90
2023-12-18T05:41:28.698Z,16.30
2023-12-18T05:43:56.540Z,16.00
2023-12-18T05:46:24.424Z,15.90
2023-12-18T05:48:53.717Z,16.10
2023-12-18T05:51:22.356Z,16.00
2023-12-18T05:53:50.610Z,16.20
2023-12-18T05:56:18.781Z,16.40
2023-12-18T05:58:46.801Z,16.60
2023-12-18T06:01:14.734Z,16.50
2023-12-18T06:03:42.744Z,16.40
2023-12-18T06:06:12.112Z,16.50
2023-12-18T06:08:40.051Z,16.40
2023-12-18T06:11:07.968Z,16.50
2023-12-18T06:13:35.763Z,16.40
2023-12-18T06:16:03.702Z,16.40
2023-12-18T06:18:31.588Z,16.40
2023-12-18T06:21:04.202Z,16.30
2023-12-18T06:23:33.864Z,16.70
2023-12-18T06:26:03.435Z,16.40
2023-12-18T06:28:31.568Z,16.50
2023-12-18T06:30:59.938Z,16.30
2023-12-18T06:33:28.176Z,16.20
2023-12-18T06:35:56.464Z,16.30
2023-12-18T06:38:24.269Z,16.40
2023-12-18T06:40:53.402Z,16.40
2023-12-18T06:43:21.239Z,16.50
2023-12-18T06:45:49.095Z,16.40
2023-12-18T06:48:17.791Z,16.50
2023-12-18T06:50:45.717Z,16.30
2023-12-18T06:53:13.551Z,16.40
2023-12-18T06:55:41.389Z,16.20
2023-12-18T06:58:10.678Z,16.20
2023-12-18T07:00:41.208Z,16.40
2023-12-18T07:03:09.858Z,16.30
2023-12-18T07:05:37.918Z,16.40
2023-12-18T07:08:06.764Z,16.50
2023-12-18T07:10:34.610Z,16.40
2023-12-18T07:13:02.551Z,16.50
2023-12-18T07:15:31.864Z,16.70
2023-12-18T07:18:00.389Z,16.60
2023-12-18T07:20:28.427Z,16.50
2023-12-18T07:22:56.226Z,16.40
2023-12-18T07:25:24.037Z,16.50
2023-12-18T07:27:52.167Z,16.50
2023-12-18T07:30:21.540Z,16.50
2023-12-18T07:32:50.965Z,16.60
2023-12-18T07:35:20.362Z,16.50
2023-12-18T07:37:48.282Z,16.30
2023-12-18T07:40:16.222Z,16.50
2023-12-18T07:42:44.429Z,16.50
2023-12-18T07:45:13.213Z,16.50
2023-12-18T07:47:42.346Z,16.70
2023-12-18T07:50:11.896Z,16.60
2023-12-18T07:52:39.935Z,16.70
2023-12-18T07:55:08.782Z,16.70
2023-12-18T07:57:36.609Z,16.80
2023-12-18T08:00:05.180Z,16.70
2023-12-18T08:02:39.647Z,16.60
2023-12-18T08:05:07.949Z,16.60
2023-12-18T08:07:37.117Z,16.60
2023-12-18T08:10:05.512Z,16.60
2023-12-18T08:12:34.645Z,16.50
2023-12-18T08:15:03.292Z,16.60
2023-12-18T08:17:31.318Z,16.40
2023-12-18T08:19:59.163Z,16.50
2023-12-18T08:22:26.986Z,16.90
2023-12-18T08:24:56.330Z,16.70
2023-12-18T08:27:24.248Z,16.60
2023-12-18T08:29:52.104Z,16.60
2023-12-18T08:32:20.057Z,16.60
2023-12-18T08:34:49.406Z,16.70
2023-12-18T08:37:17.293Z,16.80
2023-12-18T08:39:45.130Z,16.90
2023-12-18T08:42:14.806Z,16.80
2023-12-18T08:44:42.653Z,16.70
2023-12-18T08:47:10.486Z,16.70
2023-12-18T08:49:38.364Z,16.50
2023-12-18T08:52:07.077Z,16.60
2023-12-18T08:54:34.900Z,16.80
2023-12-18T08:57:02.979Z,16.90
2023-12-18T08:59:32.143Z,16.80
2023-12-18T09:02:01.689Z,16.70
2023-12-18T09:04:29.708Z,16.80
2023-12-18T09:06:57.597Z,16.70
2023-12-18T09:09:25.470Z,16.50
2023-12-18T09:11:53.333Z,16.70
2023-12-18T09:14:21.139Z,17.00
2023-12-18T09:16:50.340Z,16.90
2023-12-18T09:19:18.250Z,16.70
2023-12-18T09:21:46.106Z,16.60
2023-12-18T09:24:14.047Z,16.70
2023-12-18T09:26:41.914Z,16.60
2023-12-18T09:29:10.632Z,16.80
2023-12-18T09:31:38.588Z,16.70
2023-12-18T09:34:08.084Z,16.60
2023-12-18T09:36:37.568Z,16.90
2023-12-18T09:39:05.625Z,16.80
2023-12-18T09:41:33.482Z,16.70
2023-12-18T09:44:01.396Z,16.60
2023-12-18T09:46:29.266Z,16.50
2023-12-18T09:48:57.318Z,16.40
2023-12-18T09:51:27.620Z,16.70
2023-12-18T09:53:56.056Z,16.80
2023-12-18T09:56:25.222Z,16.90
2023-12-18T09:58:56.819Z,16.80
2023-12-18T10:01:25.366Z,16.90
2023-12-18T10:03:53.442Z,16.80
2023-12-18T10:06:22.378Z,16.70
2023-12-18T10:08:52.773Z,16.60
2023-12-18T10:11:26.679Z,17.10
2023-12-18T10:13:56.124Z,17.00
2023-12-18T10:16:24.306Z,16.90
2023-12-18T10:18:54.072Z,16.70
2023-12-18T10:21:24.929Z,17.00
2023-12-18T10:23:55.152Z,16.80
2023-12-18T10:26:23.726Z,16.70
2023-12-18T10:28:52.253Z,16.70
2023-12-18T10:31:20.340Z,17.10
2023-12-18T10:33:48.607Z,17.00
2023-12-18T10:36:17.908Z,16.80
2023-12-18T10:38:49.814Z,16.70
2023-12-18T10:41:21.064Z,17.50
2023-12-18T10:43:50.752Z,19.00
2023-12-18T10:46:18.950Z,19.70
2023-12-18T10:48:49.718Z,20.00
2023-12-18T10:51:21.492Z,20.20
2023-12-18T10:53:50.419Z,20.30
2023-12-18T10:56:23.156Z,20.40
2023-12-18T10:58:52.906Z,20.40
2023-12-18T11:01:21.937Z,20.50
2023-12-18T11:03:50.385Z,20.40
2023-12-18T11:06:20.285Z,20.40
2023-12-18T11:08:49.090Z,20.40
2023-12-18T11:11:19.669Z,20.40
2023-12-18T11:14:01.664Z,20.40
2023-12-18T11:16:43.126Z,20.40
2023-12-18T11:19:26.533Z,20.40
2023-12-18T11:21:56.307Z,20.50
2023-12-18T11:24:24.339Z,20.50
2023-12-18T11:26:54.959Z,20.50
2023-12-18T11:29:46.489Z,20.50
2023-12-18T11:32:35.172Z,20.50
2023-12-18T11:35:03.616Z,20.50
2023-12-18T11:37:41.563Z,20.50
2023-12-18T11:40:38.089Z,20.50
2023-12-18T11:43:08.256Z,20.50
2023-12-18T11:45:41.959Z,20.50
2023-12-18T11:48:11.052Z,20.50
2023-12-18T11:50:40.281Z,20.50
2023-12-18T11:53:09.517Z,20.50
2023-12-18T11:55:55.459Z,20.50
2023-12-18T11:58:27.496Z,20.50
2023-12-18T12:00:57.421Z,20.50
2023-12-18T12:03:27.909Z,20.40
2023-12-18T12:05:56.978Z,20.30
2023-12-18T12:08:25.012Z,20.10
2023-12-18T12:10:52.933Z,19.90
2023-12-18T12:13:21.859Z,19.90
2023-12-18T12:15:56.806Z,20.00
2023-12-18T12:18:26.384Z,20.00
2023-12-18T12:20:54.673Z,20.00
2023-12-18T12:23:22.583Z,20.00
2023-12-18T12:25:52.015Z,19.80
2023-12-18T12:28:21.642Z,19.80
2023-12-18T12:30:49.677Z,19.90
2023-12-18T12:33:19.164Z,20.10
2023-12-18T12:35:47.219Z,20.10
2023-12-18T12:38:17.670Z,20.20
2023-12-18T12:40:47.300Z,20.20
2023-12-18T12:43:16.894Z,20.20
2023-12-18T12:45:45.004Z,20.20
2023-12-18T12:48:14.992Z,20.30
2023-12-18T12:50:45.247Z,20.30
2023-12-18T12:53:13.206Z,20.30
2023-12-18T12:55:41.769Z,20.30
2023-12-18T12:58:11.266Z,20.30
2023-12-18T13:00:39.495Z,20.30
2023-12-18T13:03:07.389Z,20.40
2023-12-18T13:05:35.225Z,20.40
2023-12-18T13:08:05.416Z,20.40
2023-12-18T13:10:33.406Z,20.40
2023-12-18T13:13:01.587Z,18.60
2023-12-18T13:15:29.532Z,17.00
2023-12-18T13:17:58.539Z,16.20
2023-12-18T13:20:28.982Z,15.80
2023-12-18T13:22:57.819Z,15.60
2023-12-18T13:25:26.977Z,15.40
2023-12-18T13:27:55.203Z,15.30
2023-12-18T13:30:23.445Z,15.20
2023-12-18T13:32:51.513Z,15.20
2023-12-18T13:35:19.966Z,15.20
2023-12-18T13:37:47.892Z,15.10
2023-12-18T13:40:15.759Z,14.90
2023-12-18T13:42:45.017Z,15.00
2023-12-18T13:45:12.916Z,15.00
2023-12-18T13:47:41.054Z,15.10
2023-12-18T13:50:09.842Z,14.80
2023-12-18T13:52:38.134Z,15.00
2023-12-18T13:55:07.647Z,15.00
2023-12-18T13:57:43.122Z,14.90
2023-12-18T14:00:21.010Z,15.00
2023-12-18T14:02:50.824Z,15.00
2023-12-18T14:05:19.741Z,15.10
2023-12-18T14:07:48.106Z,15.00
2023-12-18T14:10:16.205Z,15.00
2023-12-18T14:12:44.296Z,15.00
2023-12-18T14:15:12.851Z,15.00
2023-12-18T14:17:42.267Z,15.00
2023-12-18T14:20:11.684Z,14.80
2023-12-18T14:22:40.013Z,14.90
2023-12-18T14:25:09.053Z,14.90
2023-12-18T14:27:37.358Z,15.00
2023-12-18T14:30:06.046Z,14.80
2023-12-18T14:32:33.987Z,14.90
2023-12-18T14:35:03.483Z,14.80
2023-12-18T14:37:31.506Z,14.80
2023-12-18T14:40:00.768Z,14.80
2023-12-18T14:42:28.843Z,14.80
2023-12-18T14:44:56.727Z,14.80
2023-12-18T14:47:24.653Z,14.70
2023-12-18T14:49:52.725Z,14.60
2023-12-18T14:52:21.840Z,14.70
2023-12-18T14:54:49.724Z,14.80
2023-12-18T14:57:17.615Z,14.90
2023-12-18T14:59:45.565Z,14.80
2023-12-18T15:02:13.425Z,14.80
2023-12-18T15:04:41.563Z,14.70
2023-12-18T15:07:09.598Z,14.80
2023-12-18T15:09:39.055Z,14.70
2023-12-18T15:12:07.634Z,16.90
2023-12-18T15:14:35.449Z,18.20
2023-12-18T15:17:05.938Z,18.90
2023-12-18T15:19:36.677Z,19.20
2023-12-18T15:22:04.717Z,19.50
2023-12-18T15:24:32.656Z,19.70
2023-12-18T15:27:02.042Z,19.70
2023-12-18T15:29:30.932Z,19.60
2023-12-18T15:31:59.042Z,19.60
2023-12-18T15:34:27.035Z,19.70
2023-12-18T15:36:55.438Z,19.80
2023-12-18T15:39:24.567Z,19.20
2023-12-18T15:41:52.818Z,16.90
2023-12-18T15:44:22.305Z,16.00
2023-12-18T15:46:50.167Z,15.50
2023-12-18T15:49:19.160Z,15.20
2023-12-18T15:51:47.286Z,15.10
2023-12-18T15:54:15.221Z,14.90
2023-12-18T15:56:44.202Z,15.00
2023-12-18T15:59:12.069Z,14.80
2023-12-18T16:01:47.389Z,14.70
2023-12-18T16:04:15.327Z,14.70
2023-12-18T16:06:43.688Z,14.80
2023-12-18T16:09:12.137Z,14.90
2023-12-18T16:11:40.958Z,14.70
2023-12-18T16:14:08.782Z,14.60
2023-12-18T16:16:37.964Z,14.70
2023-12-18T16:19:07.286Z,14.50
2023-12-18T16:21:35.198Z,14.60
2023-12-18T16:24:03.050Z,14.60
2023-12-18T16:26:35.566Z,14.60
2023-12-18T16:29:04.657Z,15.60
2023-12-18T16:31:32.557Z,16.20
2023-12-18T16:34:00.576Z,16.60
2023-12-18T16:36:31.170Z,16.80
2023-12-18T16:38:59.179Z,16.80
2023-12-18T16:41:31.353Z,17.10
2023-12-18T16:43:59.376Z,17.20
2023-12-18T16:46:32.643Z,17.20
2023-12-18T16:49:07.582Z,17.30
2023-12-18T16:51:36.805Z,17.10
2023-12-18T16:54:04.797Z,17.20
2023-12-18T16:56:33.545Z,17.40
2023-12-18T16:59:02.354Z,17.40
2023-12-18T17:01:30.287Z,17.70
2023-12-18T17:03:58.313Z,17.70
2023-12-18T17:06:26.271Z,17.80
2023-12-18T17:08:56.130Z,17.50
2023-12-18T17:11:24.028Z,17.50
2023-12-18T17:13:51.839Z,17.30
2023-12-18T17:16:19.884Z,17.60
2023-12-18T17:18:47.856Z,17.50
2023-12-18T17:21:17.255Z,17.50
2023-12-18T17:23:45.800Z,17.60
2023-12-18T17:26:16.143Z,17.60
2023-12-18T17:28:44.204Z,17.80
2023-12-18T17:31:12.146Z,17.80
2023-12-18T17:33:40.967Z,17.90
2023-12-18T17:36:09.418Z,17.70
2023-12-18T17:38:37.240Z,17.70
2023-12-18T17:41:07.602Z,17.70
2023-12-18T17:43:36.908Z,17.70
2023-12-18T17:46:07.472Z,17.70
2023-12-18T17:48:35.727Z,17.90
2023-12-18T17:51:04.109Z,18.00
2023-12-18T17:53:33.390Z,17.90
2023-12-18T17:56:01.352Z,18.00
2023-12-18T17:58:30.745Z,18.00
2023-12-18T18:00:59.971Z,17.90
2023-12-18T18:03:27.901Z,18.00
2023-12-18T18:05:55.814Z,18.00
2023-12-18T18:08:23.704Z,18.30
2023-12-18T18:10:51.536Z,18.00
2023-12-18T18:13:19.365Z,18.10
2023-12-18T18:15:47.536Z,18.10
2023-12-18T18:18:16.939Z,18.20
2023-12-18T18:20:45.513Z,18.00
2023-12-18T18:23:13.333Z,18.00
2023-12-18T18:25:42.318Z,18.20
2023-12-18T18:28:10.630Z,18.10
2023-12-18T18:30:38.632Z,18.20
2023-12-18T18:33:09.397Z,18.10
2023-12-18T18:35:40.485Z,18.20
2023-12-18T18:38:08.315Z,18.50
2023-12-18T18:40:36.135Z,18.40
2023-12-18T18:43:04.220Z,18.40
2023-12-18T18:45:34.861Z,18.40
2023-12-18T18:48:03.026Z,18.40
2023-12-18T18:50:30.836Z,18.50
2023-12-18T18:53:00.031Z,18.30
2023-12-18T18:55:27.833Z,18.00
2023-12-18T18:57:55.886Z,18.10
2023-12-18T19:00:23.888Z,18.00
2023-12-18T19:02:53.663Z,18.00
2023-12-18T19:05:21.675Z,18.20
2023-12-18T19:07:49.559Z,18.30
2023-12-18T19:10:19.033Z,18.30
2023-12-18T19:12:46.894Z,18.30
2023-12-18T19:15:15.580Z,18.30
2023-12-18T19:17:44.147Z,18.20
2023-12-18T19:20:12.609Z,18.40
2023-12-18T19:22:41.297Z,18.20
2023-12-18T19:25:09.541Z,18.20
2023-12-18T19:27:39.918Z,18.10
2023-12-18T19:30:09.149Z,18.00
2023-12-18T19:32:37.040Z,18.10
2023-12-18T19:35:05.587Z,18.10
2023-12-18T19:37:33.412Z,18.30
2023-12-18T19:40:01.285Z,18.40
2023-12-18T19:42:30.158Z,18.30
2023-12-18T19:44:59.349Z,18.30
2023-12-18T19:47:27.357Z,18.20
2023-12-18T19:49:55.522Z,18.00
2023-12-18T19:52:23.429Z,18.10
2023-12-18T19:54:51.372Z,18.30
2023-12-18T19:57:19.321Z,18.20
2023-12-18T19:59:47.223Z,18.20
2023-12-18T20:02:17.229Z,18.20
2023-12-18T20:04:45.096Z,18.40
2023-12-18T20:07:13.020Z,18.40
2023-12-18T20:09:40.967Z,18.40
2023-12-18T20:12:09.131Z,18.40
2023-12-18T20:14:37.378Z,18.30
2023-12-18T20:17:05.540Z,18.40
2023-12-18T20:19:34.774Z,18.50
2023-12-18T20:22:02.825Z,18.40
2023-12-18T20:24:30.728Z,18.20
2023-12-18T20:26:59.376Z,18.10
2023-12-18T20:29:27.247Z,17.90
2023-12-18T20:31:55.391Z,18.10
2023-12-18T20:34:23.323Z,18.00
2023-12-18T20:36:53.079Z,18.00
2023-12-18T20:39:21.112Z,17.80
2023-12-18T20:41:48.944Z,18.30
2023-12-18T20:44:18.360Z,18.10
2023-12-18T20:46:46.325Z,17.90
2023-12-18T20:49:14.321Z,18.00
2023-12-18T20:51:42.273Z,18.10
2023-12-18T20:54:11.561Z,18.20
2023-12-18T20:56:39.384Z,18.30
2023-12-18T20:59:07.588Z,18.20
2023-12-18T21:01:35.772Z,18.10
2023-12-18T21:04:04.131Z,18.20
2023-12-18T21:06:32.333Z,18.00
2023-12-18T21:09:00.274Z,18.10
2023-12-18T21:11:29.417Z,17.90
2023-12-18T21:13:57.229Z,18.20
2023-12-18T21:16:25.056Z,18.20
2023-12-18T21:18:52.953Z,18.30
2023-12-18T21:21:21.741Z,18.00
2023-12-18T21:23:49.766Z,18.00
2023-12-18T21:26:17.637Z,18.00
2023-12-18T21:28:46.787Z,18.10
2023-12-18T21:31:14.708Z,18.20
2023-12-18T21:33:42.673Z,18.20
2023-12-18T21:36:13.896Z,18.10
2023-12-18T21:38:41.689Z,18.20
2023-12-18T21:41:09.604Z,18.30
2023-12-18T21:43:37.433Z,18.10
2023-12-18T21:46:06.668Z,18.10
2023-12-18T21:48:34.753Z,18.20
2023-12-18T21:51:02.658Z,18.30
2023-12-18T21:53:30.541Z,18.00
2023-12-18T21:55:58.369Z,18.00
2023-12-18T21:58:26.191Z,18.30
2023-12-18T22:00:54.128Z,18.20
2023-12-18T22:03:23.436Z,18.10
2023-12-18T22:05:51.350Z,18.00
2023-12-18T22:08:19.188Z,18.00
2023-12-18T22:10:47.081Z,18.20
2023-12-18T22:13:15.382Z,18.00
2023-12-18T22:15:43.300Z,18.20
2023-12-18T22:18:11.292Z,18.20
2023-12-18T22:20:40.495Z,18.00
2023-12-18T22:23:08.425Z,18.10
2023-12-18T22:25:37.870Z,17.90
2023-12-18T22:28:07.439Z,17.90
2023-12-18T22:30:35.422Z,17.80
2023-12-18T22:33:04.046Z,18.00
2023-12-18T22:35:31.888Z,18.00
2023-12-18T22:38:01.610Z,18.00
2023-12-18T22:40:29.461Z,17.80
2023-12-18T22:42:57.295Z,17.90
2023-12-18T22:45:25.212Z,17.80
2023-12-18T22:47:53.086Z,17.70
2023-12-18T22:50:20.922Z,17.60
2023-12-18T22:52:48.916Z,17.60
2023-12-18T22:55:18.148Z,17.60
2023-12-18T22:57:45.984Z,17.70
2023-12-18T23:00:23.403Z,17.60
2023-12-18T23:02:51.285Z,18.00
2023-12-18T23:05:19.124Z,17.80
2023-12-18T23:07:46.953Z,17.60
2023-12-18T23:10:14.828Z,17.60
2023-12-18T23:12:44.361Z,17.40
2023-12-18T23:15:12.598Z,17.60
2023-12-18T23:17:40.562Z,17.60
2023-12-18T23:20:09.974Z,17.50
2023-12-18T23:22:38.335Z,17.50
2023-12-18T23:25:07.343Z,17.50
2023-12-18T23:27:35.416Z,17.60
2023-12-18T23:30:05.712Z,17.70
2023-12-18T23:32:33.785Z,17.50
2023-12-18T23:35:01.786Z,17.40
2023-12-18T23:37:29.767Z,17.50
2023-12-18T23:39:57.665Z,17.50
2023-12-18T23:42:25.611Z,17.60
2023-12-18T23:44:53.412Z,17.50
2023-12-18T23:47:22.590Z,17.60
2023-12-18T23:49:50.418Z,17.50
2023-12-18T23:52:18.448Z,17.50
2023-12-18T23:54:46.412Z,17.70
2023-12-18T23:57:14.314Z,17.70
2023-12-18T23:59:42.378Z,17.60
